TAF and METAR

Decoding for American and Canadian METARs and TAFs is not fully implemented.

Could not understand the following METAR

CWIL 191500Z AUTO 09008KT ////SM NCD M30/M34 A3011
No TAF available for Hat Island